sensor_id;sensor_type;location;lat;lon;timestamp;pressure;altitude;pressure_sealevel;temperature;humidity
52745;BME280;38637;49.984;20.426;2023-04-19T00:00:44;99485.63;;;10.86;100.00
52745;BME280;38637;49.984;20.426;2023-04-19T00:03:10;99470.31;;;10.85;100.00
52745;BME280;38637;49.984;20.426;2023-04-19T00:05:35;99464.03;;;10.85;100.00
52745;BME280;38637;49.984;20.426;2023-04-19T00:08:05;99472.47;;;10.83;100.00
52745;BME280;38637;49.984;20.426;2023-04-19T00:10:30;99467.25;;;10.76;100.00
52745;BME280;38637;49.984;20.426;2023-04-19T00:12:56;99473.22;;;10.73;100.00
52745;BME280;38637;49.984;20.426;2023-04-19T00:15:21;99462.56;;;10.72;100.00
52745;BME280;38637;49.984;20.426;2023-04-19T00:17:47;99459.28;;;10.70;100.00
52745;BME280;38637;49.984;20.426;2023-04-19T00:20:12;99460.66;;;10.72;100.00
52745;BME280;38637;49.984;20.426;2023-04-19T00:22:38;99451.88;;;10.65;100.00
52745;BME280;38637;49.984;20.426;2023-04-19T00:25:04;99455.44;;;10.71;100.00
52745;BME280;38637;49.984;20.426;2023-04-19T00:27:29;99459.28;;;10.70;100.00
52745;BME280;38637;49.984;20.426;2023-04-19T00:29:55;99448.06;;;10.66;100.00
52745;BME280;38637;49.984;20.426;2023-04-19T00:32:22;99454.63;;;10.70;100.00
52745;BME280;38637;49.984;20.426;2023-04-19T00:34:47;99445.63;;;10.70;100.00
52745;BME280;38637;49.984;20.426;2023-04-19T00:37:12;99446.44;;;10.70;100.00
52745;BME280;38637;49.984;20.426;2023-04-19T00:39:37;99441.50;;;10.67;100.00
52745;BME280;38637;49.984;20.426;2023-04-19T00:42:03;99432.47;;;10.67;100.00
52745;BME280;38637;49.984;20.426;2023-04-19T00:44:28;99428.94;;;10.66;100.00
52745;BME280;38637;49.984;20.426;2023-04-19T00:46:55;99434.41;;;10.66;100.00
52745;BME280;38637;49.984;20.426;2023-04-19T00:49:21;99434.13;;;10.68;100.00
52745;BME280;38637;49.984;20.426;2023-04-19T00:51:47;99434.13;;;10.68;100.00
52745;BME280;38637;49.984;20.426;2023-04-19T00:54:14;99427.31;;;10.70;100.00
52745;BME280;38637;49.984;20.426;2023-04-19T00:56:39;99406.16;;;10.55;100.00
52745;BME280;38637;49.984;20.426;2023-04-19T00:59:05;99420.50;;;10.73;100.00
52745;BME280;38637;49.984;20.426;2023-04-19T01:01:31;99422.16;;;10.74;100.00
52745;BME280;38637;49.984;20.426;2023-04-19T01:03:57;99421.09;;;10.75;100.00
52745;BME280;38637;49.984;20.426;2023-04-19T01:06:22;99422.16;;;10.74;100.00
52745;BME280;38637;49.984;20.426;2023-04-19T01:08:47;99405.75;;;10.74;100.00
52745;BME280;38637;49.984;20.426;2023-04-19T01:11:13;99402.50;;;10.72;100.00
52745;BME280;38637;49.984;20.426;2023-04-19T01:13:38;99405.22;;;10.72;100.00
52745;BME280;38637;49.984;20.426;2023-04-19T01:16:05;99390.41;;;10.68;100.00
52745;BME280;38637;49.984;20.426;2023-04-19T01:18:30;99393.72;;;10.70;100.00
52745;BME280;38637;49.984;20.426;2023-04-19T01:21:02;99387.69;;;10.68;100.00
52745;BME280;38637;49.984;20.426;2023-04-19T01:23:27;99390.41;;;10.68;100.00
52745;BME280;38637;49.984;20.426;2023-04-19T01:25:52;99385.81;;;10.68;100.00
52745;BME280;38637;49.984;20.426;2023-04-19T01:28:17;99381.13;;;10.64;100.00
52745;BME280;38637;49.984;20.426;2023-04-19T01:30:43;99376.75;;;10.63;100.00
52745;BME280;38637;49.984;20.426;2023-04-19T01:33:08;99373.44;;;10.61;100.00
52745;BME280;38637;49.984;20.426;2023-04-19T01:35:33;99373.72;;;10.59;100.00
52745;BME280;38637;49.984;20.426;2023-04-19T01:37:59;99376.69;;;10.57;100.00
52745;BME280;38637;49.984;20.426;2023-04-19T01:40:25;99363.84;;;10.53;100.00
52745;BME280;38637;49.984;20.426;2023-04-19T01:42:51;99370.66;;;10.55;100.00
52745;BME280;38637;49.984;20.426;2023-04-19T01:45:16;99368.22;;;10.54;100.00
52745;BME280;38637;49.984;20.426;2023-04-19T01:47:42;99359.50;;;10.57;100.00
52745;BME280;38637;49.984;20.426;2023-04-19T01:50:07;99366.88;;;10.56;100.00
52745;BME280;38637;49.984;20.426;2023-04-19T01:52:33;99361.94;;;10.53;100.00
52745;BME280;38637;49.984;20.426;2023-04-19T01:54:58;99358.63;;;10.51;100.00
52745;BME280;38637;49.984;20.426;2023-04-19T01:57:23;99358.91;;;10.50;100.00
52745;BME280;38637;49.984;20.426;2023-04-19T01:59:49;99357.53;;;10.47;100.00
52745;BME280;38637;49.984;20.426;2023-04-19T02:02:14;99358.34;;;10.48;100.00
52745;BME280;38637;49.984;20.426;2023-04-19T02:04:39;99347.66;;;10.46;100.00
52745;BME280;38637;49.984;20.426;2023-04-19T02:07:05;99355.03;;;10.46;100.00
52745;BME280;38637;49.984;20.426;2023-04-19T02:09:34;99352.59;;;10.44;100.00
52745;BME280;38637;49.984;20.426;2023-04-19T02:11:59;99339.66;;;10.34;100.00
52745;BME280;38637;49.984;20.426;2023-04-19T02:14:25;99358.56;;;10.41;100.00
52745;BME280;38637;49.984;20.426;2023-04-19T02:16:50;99356.94;;;10.45;100.00
52745;BME280;38637;49.984;20.426;2023-04-19T02:19:15;99352.59;;;10.44;100.00
52745;BME280;38637;49.984;20.426;2023-04-19T02:21:41;99348.19;;;10.43;100.00
52745;BME280;38637;49.984;20.426;2023-04-19T02:24:06;99346.56;;;10.42;100.00
52745;BME280;38637;49.984;20.426;2023-04-19T02:26:32;99349.53;;;10.41;100.00
52745;BME280;38637;49.984;20.426;2023-04-19T02:28:57;99347.66;;;10.41;100.00
52745;BME280;38637;49.984;20.426;2023-04-19T02:31:22;99338.88;;;10.39;100.00
52745;BME280;38637;49.984;20.426;2023-04-19T02:33:48;99341.63;;;10.39;100.00
52745;BME280;38637;49.984;20.426;2023-04-19T02:36:13;99338.31;;;10.37;100.00
52745;BME280;38637;49.984;20.426;2023-04-19T02:38:38;99338.88;;;10.39;100.00
52745;BME280;38637;49.984;20.426;2023-04-19T02:41:04;99333.44;;;10.39;100.00
52745;BME280;38637;49.984;20.426;2023-04-19T02:43:30;99331.22;;;10.36;100.00
52745;BME280;38637;49.984;20.426;2023-04-19T02:45:55;99332.03;;;10.37;100.00
52745;BME280;38637;49.984;20.426;2023-04-19T02:48:21;99324.13;;;10.35;100.00
52745;BME280;38637;49.984;20.426;2023-04-19T02:50:46;99318.91;;;10.33;100.00
52745;BME280;38637;49.984;20.426;2023-04-19T02:53:11;99308.28;;;10.32;100.00
52745;BME280;38637;49.984;20.426;2023-04-19T02:55:37;99305.53;;;10.32;100.00
52745;BME280;38637;49.984;20.426;2023-04-19T02:58:02;99300.91;;;10.32;100.00
52745;BME280;38637;49.984;20.426;2023-04-19T03:00:28;99309.91;;;10.33;100.00
52745;BME280;38637;49.984;20.426;2023-04-19T03:02:54;99299.25;;;10.31;100.00
52745;BME280;38637;49.984;20.426;2023-04-19T03:05:20;99296.78;;;10.30;100.00
52745;BME280;38637;49.984;20.426;2023-04-19T03:07:45;99290.19;;;10.26;100.00
52745;BME280;38637;49.984;20.426;2023-04-19T03:10:11;99287.13;;;10.22;100.00
52745;BME280;38637;49.984;20.426;2023-04-19T03:12:36;99288.50;;;10.20;100.00
52745;BME280;38637;49.984;20.426;2023-04-19T03:15:01;99280.25;;;10.15;100.00
52745;BME280;38637;49.984;20.426;2023-04-19T03:17:27;99287.84;;;10.07;100.00
52745;BME280;38637;49.984;20.426;2023-04-19T03:19:52;99282.06;;;10.04;100.00
52745;BME280;38637;49.984;20.426;2023-04-19T03:22:18;99287.53;;;10.04;100.00
52745;BME280;38637;49.984;20.426;2023-04-19T03:24:43;99280.72;;;10.01;100.00
52745;BME280;38637;49.984;20.426;2023-04-19T03:27:08;99296.50;;;9.99;100.00
52745;BME280;38637;49.984;20.426;2023-04-19T03:29:34;99282.56;;;9.96;100.00
52745;BME280;38637;49.984;20.426;2023-04-19T03:31:59;99298.13;;;9.95;100.00
52745;BME280;38637;49.984;20.426;2023-04-19T03:34:24;99289.38;;;9.93;100.00
52745;BME280;38637;49.984;20.426;2023-04-19T03:36:50;99284.47;;;9.95;100.00
52745;BME280;38637;49.984;20.426;2023-04-19T03:39:15;99268.06;;;9.90;100.00
52745;BME280;38637;49.984;20.426;2023-04-19T03:41:40;99278.19;;;9.95;100.00
52745;BME280;38637;49.984;20.426;2023-04-19T03:44:06;99278.19;;;9.95;100.00
52745;BME280;38637;49.984;20.426;2023-04-19T03:46:31;99271.91;;;9.94;100.00
52745;BME280;38637;49.984;20.426;2023-04-19T03:48:56;99267.78;;;9.92;100.00
52745;BME280;38637;49.984;20.426;2023-04-19T03:51:22;99275.66;;;9.88;100.00
52745;BME280;38637;49.984;20.426;2023-04-19T03:53:47;99272.66;;;9.84;100.00
52745;BME280;38637;49.984;20.426;2023-04-19T03:56:12;99272.91;;;9.83;100.00
52745;BME280;38637;49.984;20.426;2023-04-19T03:58:38;99277.28;;;9.84;100.00
52745;BME280;38637;49.984;20.426;2023-04-19T04:01:03;99267.72;;;9.81;100.00
52745;BME280;38637;49.984;20.426;2023-04-19T04:03:29;99276.72;;;9.82;100.00
52745;BME280;38637;49.984;20.426;2023-04-19T04:05:54;99265.25;;;9.80;100.00
52745;BME280;38637;49.984;20.426;2023-04-19T04:08:20;99265.25;;;9.80;100.00
52745;BME280;38637;49.984;20.426;2023-04-19T04:10:45;99266.88;;;9.81;100.00
52745;BME280;38637;49.984;20.426;2023-04-19T04:13:10;99255.97;;;9.81;100.00
52745;BME280;38637;49.984;20.426;2023-04-19T04:15:36;99257.06;;;9.80;100.00
52745;BME280;38637;49.984;20.426;2023-04-19T04:18:01;99257.63;;;9.82;100.00
52745;BME280;38637;49.984;20.426;2023-04-19T04:20:26;99258.75;;;9.86;100.00
52745;BME280;38637;49.984;20.426;2023-04-19T04:22:52;99259.88;;;9.90;100.00
52745;BME280;38637;49.984;20.426;2023-04-19T04:25:17;99263.47;;;9.96;100.00
52745;BME280;38637;49.984;20.426;2023-04-19T04:27:43;99262.97;;;9.99;100.00
52745;BME280;38637;49.984;20.426;2023-04-19T04:30:09;99269.81;;;10.01;100.00
52745;BME280;38637;49.984;20.426;2023-04-19T04:32:35;99267.59;;;9.98;100.00
52745;BME280;38637;49.984;20.426;2023-04-19T04:35:02;99268.13;;;10.00;100.00
52745;BME280;38637;49.984;20.426;2023-04-19T04:37:27;99262.97;;;9.99;100.00
52745;BME280;38637;49.984;20.426;2023-04-19T04:39:55;99262.97;;;9.99;100.00
52745;BME280;38637;49.984;20.426;2023-04-19T04:42:20;99259.94;;;10.00;100.00
52745;BME280;38637;49.984;20.426;2023-04-19T04:44:46;99257.78;;;10.02;100.00
52745;BME280;38637;49.984;20.426;2023-04-19T04:47:12;99267.09;;;10.06;100.00
52745;BME280;38637;49.984;20.426;2023-04-19T04:49:38;99266.84;;;10.08;100.00
52745;BME280;38637;49.984;20.426;2023-04-19T04:52:03;99271.50;;;10.12;100.00
52745;BME280;38637;49.984;20.426;2023-04-19T04:54:28;99263.88;;;10.15;100.00
52745;BME280;38637;49.984;20.426;2023-04-19T04:56:54;99266.38;;;10.21;100.00
52745;BME280;38637;49.984;20.426;2023-04-19T04:59:19;99260.16;;;10.26;100.00
52745;BME280;38637;49.984;20.426;2023-04-19T05:01:45;99267.00;;;10.28;100.00
52745;BME280;38637;49.984;20.426;2023-04-19T05:04:10;99255.84;;;10.30;100.00
52745;BME280;38637;49.984;20.426;2023-04-19T05:06:35;99265.94;;;10.29;99.91
52745;BME280;38637;49.984;20.426;2023-04-19T05:09:01;99253.66;;;10.27;98.78
52745;BME280;38637;49.984;20.426;2023-04-19T05:11:26;99244.41;;;10.33;98.89
52745;BME280;38637;49.984;20.426;2023-04-19T05:13:52;99245.56;;;10.42;98.50
52745;BME280;38637;49.984;20.426;2023-04-19T05:16:17;99254.28;;;10.39;97.00
52745;BME280;38637;49.984;20.426;2023-04-19T05:18:42;99255.41;;;10.48;96.82
52745;BME280;38637;49.984;20.426;2023-04-19T05:21:07;99251.09;;;10.57;95.47
52745;BME280;38637;49.984;20.426;2023-04-19T05:23:35;99259.41;;;10.83;95.29
52745;BME280;38637;49.984;20.426;2023-04-19T05:26:00;99254.06;;;11.09;94.22
52745;BME280;38637;49.984;20.426;2023-04-19T05:28:26;99258.19;;;11.16;93.16
52745;BME280;38637;49.984;20.426;2023-04-19T05:30:51;99260.94;;;11.11;90.95
52745;BME280;38637;49.984;20.426;2023-04-19T05:33:16;99257.34;;;11.11;92.20
52745;BME280;38637;49.984;20.426;2023-04-19T05:35:42;99257.34;;;11.06;92.18
52745;BME280;38637;49.984;20.426;2023-04-19T05:38:07;99266.91;;;11.03;92.14
52745;BME280;38637;49.984;20.426;2023-04-19T05:40:32;99259.16;;;10.85;91.26
52745;BME280;38637;49.984;20.426;2023-04-19T05:42:59;99261.88;;;10.79;91.95
52745;BME280;38637;49.984;20.426;2023-04-19T05:45:25;99240.50;;;10.66;92.29
52745;BME280;38637;49.984;20.426;2023-04-19T05:47:50;99258.00;;;10.70;92.44
52745;BME280;38637;49.984;20.426;2023-04-19T05:50:15;99255.63;;;10.89;93.17
52745;BME280;38637;49.984;20.426;2023-04-19T05:52:42;99252.34;;;10.87;92.20
52745;BME280;38637;49.984;20.426;2023-04-19T05:55:08;99255.34;;;10.80;91.57
52745;BME280;38637;49.984;20.426;2023-04-19T05:57:34;99248.41;;;10.68;91.72
52745;BME280;38637;49.984;20.426;2023-04-19T05:59:59;99248.38;;;10.57;92.45
52745;BME280;38637;49.984;20.426;2023-04-19T06:02:24;99254.16;;;10.66;92.38
52745;BME280;38637;49.984;20.426;2023-04-19T06:04:50;99251.69;;;10.65;92.75
52745;BME280;38637;49.984;20.426;2023-04-19T06:07:15;99258.53;;;10.67;92.34
52745;BME280;38637;49.984;20.426;2023-04-19T06:09:41;99250.88;;;10.64;92.25
52745;BME280;38637;49.984;20.426;2023-04-19T06:12:06;99259.88;;;10.60;92.98
52745;BME280;38637;49.984;20.426;2023-04-19T06:14:31;99257.66;;;10.56;92.58
52745;BME280;38637;49.984;20.426;2023-04-19T06:16:57;99252.00;;;10.68;92.30
52745;BME280;38637;49.984;20.426;2023-04-19T06:19:22;99254.97;;;10.67;92.32
52745;BME280;38637;49.984;20.426;2023-04-19T06:21:48;99257.53;;;10.84;91.85
52745;BME280;38637;49.984;20.426;2023-04-19T06:24:13;99249.94;;;10.96;92.13
52745;BME280;38637;49.984;20.426;2023-04-19T06:26:39;99246.41;;;11.11;90.43
52745;BME280;38637;49.984;20.426;2023-04-19T06:29:04;99251.34;;;11.14;89.56
52745;BME280;38637;49.984;20.426;2023-04-19T06:31:30;99244.34;;;11.48;88.10
52745;BME280;38637;49.984;20.426;2023-04-19T06:33:57;99250.09;;;11.62;85.19
52745;BME280;38637;49.984;20.426;2023-04-19T06:36:23;99248.47;;;11.71;84.63
52745;BME280;38637;49.984;20.426;2023-04-19T06:38:48;99236.75;;;11.86;84.00
52745;BME280;38637;49.984;20.426;2023-04-19T06:41:14;99244.66;;;12.29;82.44
52745;BME280;38637;49.984;20.426;2023-04-19T06:43:39;99248.72;;;12.62;81.35
52745;BME280;38637;49.984;20.426;2023-04-19T06:46:07;99246.78;;;12.62;78.73
52745;BME280;38637;49.984;20.426;2023-04-19T06:48:33;99245.16;;;12.51;79.69
52745;BME280;38637;49.984;20.426;2023-04-19T06:50:59;99244.03;;;12.68;80.05
52745;BME280;38637;49.984;20.426;2023-04-19T06:53:24;99247.66;;;12.27;79.16
52745;BME280;38637;49.984;20.426;2023-04-19T06:55:57;99235.31;;;11.53;81.11
52745;BME280;38637;49.984;20.426;2023-04-19T06:58:25;99246.47;;;11.31;83.86
52745;BME280;38637;49.984;20.426;2023-04-19T07:00:51;99246.16;;;11.12;86.01
52745;BME280;38637;49.984;20.426;2023-04-19T07:03:16;99239.75;;;10.86;86.63
52745;BME280;38637;49.984;20.426;2023-04-19T07:05:41;99248.16;;;10.69;85.27
52745;BME280;38637;49.984;20.426;2023-04-19T07:08:06;99241.72;;;10.43;87.18
52745;BME280;38637;49.984;20.426;2023-04-19T07:10:32;99237.03;;;10.33;88.48
52745;BME280;38637;49.984;20.426;2023-04-19T07:12:57;99243.06;;;10.35;89.20
52745;BME280;38637;49.984;20.426;2023-04-19T07:15:22;99239.72;;;10.28;89.64
52745;BME280;38637;49.984;20.426;2023-04-19T07:17:48;99249.72;;;10.18;89.03
52745;BME280;38637;49.984;20.426;2023-04-19T07:20:13;99245.84;;;10.08;90.19
52745;BME280;38637;49.984;20.426;2023-04-19T07:22:38;99254.19;;;9.97;90.58
52745;BME280;38637;49.984;20.426;2023-04-19T07:25:04;99255.28;;;9.96;90.52
52745;BME280;38637;49.984;20.426;2023-04-19T07:27:29;99265.94;;;9.97;90.93
52745;BME280;38637;49.984;20.426;2023-04-19T07:29:54;99254.72;;;9.94;91.02
52745;BME280;38637;49.984;20.426;2023-04-19T07:32:20;99251.78;;;10.00;91.12
52745;BME280;38637;49.984;20.426;2023-04-19T07:34:45;99255.31;;;10.01;90.88
52745;BME280;38637;49.984;20.426;2023-04-19T07:37:10;99259.94;;;10.00;91.05
52745;BME280;38637;49.984;20.426;2023-04-19T07:39:36;99247.69;;;10.03;91.70
52745;BME280;38637;49.984;20.426;2023-04-19T07:42:02;99253.56;;;10.17;91.18
52745;BME280;38637;49.984;20.426;2023-04-19T07:44:27;99264.47;;;10.22;90.18
52745;BME280;38637;49.984;20.426;2023-04-19T07:46:52;99261.75;;;10.22;90.95
52745;BME280;38637;49.984;20.426;2023-04-19T07:49:18;99261.03;;;10.31;90.67
52745;BME280;38637;49.984;20.426;2023-04-19T07:51:43;99262.56;;;10.22;89.14
52745;BME280;38637;49.984;20.426;2023-04-19T07:54:08;99263.94;;;10.20;90.11
52745;BME280;38637;49.984;20.426;2023-04-19T07:56:34;99251.03;;;10.10;89.37
52745;BME280;38637;49.984;20.426;2023-04-19T07:59:00;99262.03;;;10.20;90.04
52745;BME280;38637;49.984;20.426;2023-04-19T08:01:25;99264.72;;;10.15;89.80
52745;BME280;38637;49.984;20.426;2023-04-19T08:03:50;99255.41;;;10.11;90.13
52745;BME280;38637;49.984;20.426;2023-04-19T08:06:15;99259.44;;;10.03;90.03
52745;BME280;38637;49.984;20.426;2023-04-19T08:08:42;99260.25;;;10.04;90.86
52745;BME280;38637;49.984;20.426;2023-04-19T08:11:07;99247.66;;;9.98;90.85
52745;BME280;38637;49.984;20.426;2023-04-19T08:13:32;99257.28;;;10.05;90.75
52745;BME280;38637;49.984;20.426;2023-04-19T08:15:58;99266.28;;;10.06;91.02
52745;BME280;38637;49.984;20.426;2023-04-19T08:18:23;99258.97;;;10.11;90.80
52745;BME280;38637;49.984;20.426;2023-04-19T08:20:49;99259.47;;;10.08;90.28
52745;BME280;38637;49.984;20.426;2023-04-19T08:23:14;99257.22;;;10.00;91.12
52745;BME280;38637;49.984;20.426;2023-04-19T08:25:40;99258.03;;;10.01;91.59
52745;BME280;38637;49.984;20.426;2023-04-19T08:28:05;99259.41;;;9.98;91.72
52745;BME280;38637;49.984;20.426;2023-04-19T08:30:31;99258.88;;;10.01;91.49
52745;BME280;38637;49.984;20.426;2023-04-19T08:32:57;99250.34;;;9.93;90.80
52745;BME280;38637;49.984;20.426;2023-04-19T08:35:22;99262.66;;;9.95;90.99
52745;BME280;38637;49.984;20.426;2023-04-19T08:37:49;99263.69;;;9.89;91.40
52745;BME280;38637;49.984;20.426;2023-04-19T08:40:14;99260.75;;;9.96;92.03
52745;BME280;38637;49.984;20.426;2023-04-19T08:42:41;99255.59;;;9.99;92.15
52745;BME280;38637;49.984;20.426;2023-04-19T08:45:07;99260.53;;;10.02;91.67
52745;BME280;38637;49.984;20.426;2023-04-19T08:47:35;99252.94;;;10.09;91.18
52745;BME280;38637;49.984;20.426;2023-04-19T08:50:03;99256.81;;;10.13;91.50
52745;BME280;38637;49.984;20.426;2023-04-19T08:52:29;99259.00;;;10.17;91.22
52745;BME280;38637;49.984;20.426;2023-04-19T08:54:57;99248.09;;;10.17;91.49
52745;BME280;38637;49.984;20.426;2023-04-19T08:57:24;99258.00;;;10.28;91.20
52745;BME280;38637;49.984;20.426;2023-04-19T08:59:49;99261.31;;;10.30;91.02
52745;BME280;38637;49.984;20.426;2023-04-19T09:02:20;99265.97;;;10.34;90.48
52745;BME280;38637;49.984;20.426;2023-04-19T09:04:45;99262.16;;;10.35;90.60
52745;BME280;38637;49.984;20.426;2023-04-19T09:07:24;99254.78;;;10.36;90.41
52745;BME280;38637;49.984;20.426;2023-04-19T09:10:09;99255.66;;;10.42;90.37
52745;BME280;38637;49.984;20.426;2023-04-19T09:12:36;99261.94;;;10.42;90.16
52745;BME280;38637;49.984;20.426;2023-04-19T09:15:03;99253.69;;;10.37;90.46
52745;BME280;38637;49.984;20.426;2023-04-19T09:17:30;99262.69;;;10.32;90.59
52745;BME280;38637;49.984;20.426;2023-04-19T09:19:56;99261.69;;;10.11;92.21
52745;BME280;38637;49.984;20.426;2023-04-19T09:22:22;99259.34;;;9.93;93.33
52745;BME280;38637;49.984;20.426;2023-04-19T09:24:47;99259.53;;;9.81;94.71
52745;BME280;38637;49.984;20.426;2023-04-19T09:27:33;99266.81;;;9.71;94.79
52745;BME280;38637;49.984;20.426;2023-04-19T09:30:01;99265.19;;;9.75;95.70
52745;BME280;38637;49.984;20.426;2023-04-19T09:32:27;99265.41;;;9.68;96.03
52745;BME280;38637;49.984;20.426;2023-04-19T09:37:18;99263.09;;;9.55;96.52
52745;BME280;38637;49.984;20.426;2023-04-19T09:39:44;99268.91;;;9.63;96.82
52745;BME280;38637;49.984;20.426;2023-04-19T09:42:10;99272.16;;;9.60;96.26
52745;BME280;38637;49.984;20.426;2023-04-19T09:44:35;99271.31;;;9.60;96.04
52745;BME280;38637;49.984;20.426;2023-04-19T09:47:00;99269.69;;;9.59;96.59
52745;BME280;38637;49.984;20.426;2023-04-19T09:49:26;99273.28;;;9.64;96.77
52745;BME280;38637;49.984;20.426;2023-04-19T09:51:55;99279.34;;;9.72;96.35
52745;BME280;38637;49.984;20.426;2023-04-19T09:54:22;99285.69;;;9.77;96.16
52745;BME280;38637;49.984;20.426;2023-04-19T09:56:49;99287.84;;;9.75;95.74
52745;BME280;38637;49.984;20.426;2023-04-19T09:59:15;99281.56;;;9.75;95.67
52745;BME280;38637;49.984;20.426;2023-04-19T10:01:46;99285.69;;;9.77;95.18
52745;BME280;38637;49.984;20.426;2023-04-19T10:04:13;99286.84;;;9.86;95.08
52745;BME280;38637;49.984;20.426;2023-04-19T10:06:50;99281.47;;;9.97;94.58
52745;BME280;38637;49.984;20.426;2023-04-19T10:09:22;99290.59;;;10.12;93.54
52745;BME280;38637;49.984;20.426;2023-04-19T10:11:51;99292.06;;;10.25;92.87
52745;BME280;38637;49.984;20.426;2023-04-19T10:14:21;99288.94;;;10.44;91.81
52745;BME280;38637;49.984;20.426;2023-04-19T10:16:49;99292.59;;;10.54;90.44
52745;BME280;38637;49.984;20.426;2023-04-19T10:19:16;99285.59;;;10.74;90.22
52745;BME280;38637;49.984;20.426;2023-04-19T10:21:42;99282.13;;;10.89;88.92
52745;BME280;38637;49.984;20.426;2023-04-19T10:24:08;99284.72;;;11.21;87.38
52745;BME280;38637;49.984;20.426;2023-04-19T10:27:10;99285.38;;;11.69;84.59
52745;BME280;38637;49.984;20.426;2023-04-19T10:29:55;99284.09;;;12.07;82.25
52745;BME280;38637;49.984;20.426;2023-04-19T10:32:21;99279.97;;;12.15;80.77
52745;BME280;38637;49.984;20.426;2023-04-19T10:34:50;99280.53;;;12.32;79.16
52745;BME280;38637;49.984;20.426;2023-04-19T10:37:20;99286.25;;;12.36;78.97
52745;BME280;38637;49.984;20.426;2023-04-19T10:39:46;99281.63;;;12.31;78.55
52745;BME280;38637;49.984;20.426;2023-04-19T10:42:11;99287.63;;;12.33;79.06
52745;BME280;38637;49.984;20.426;2023-04-19T10:44:37;99280.22;;;12.39;78.17
52745;BME280;38637;49.984;20.426;2023-04-19T10:47:04;99285.97;;;12.48;78.43
52745;BME280;38637;49.984;20.426;2023-04-19T10:49:29;99267.91;;;12.41;77.32
52745;BME280;38637;49.984;20.426;2023-04-19T10:51:55;99275.28;;;12.61;76.57
52745;BME280;38637;49.984;20.426;2023-04-19T10:54:32;99276.84;;;12.88;74.46
52745;BME280;38637;49.984;20.426;2023-04-19T10:57:06;99278.69;;;13.08;74.88
52745;BME280;38637;49.984;20.426;2023-04-19T10:59:35;99284.06;;;13.44;73.68
52745;BME280;38637;49.984;20.426;2023-04-19T11:02:02;99273.00;;;13.59;71.93
52745;BME280;38637;49.984;20.426;2023-04-19T11:07:04;99268.00;;;14.06;71.78
52745;BME280;38637;49.984;20.426;2023-04-19T11:14:25;99273.50;;;14.35;68.46
52745;BME280;38637;49.984;20.426;2023-04-19T11:16:51;99255.06;;;14.69;67.15
52745;BME280;38637;49.984;20.426;2023-04-19T11:19:17;99267.03;;;14.55;68.41
52745;BME280;38637;49.984;20.426;2023-04-19T11:21:44;99258.75;;;13.91;68.96
52745;BME280;38637;49.984;20.426;2023-04-19T11:24:10;99268.81;;;13.67;70.31
52745;BME280;38637;49.984;20.426;2023-04-19T11:26:36;99253.59;;;13.85;71.54
52745;BME280;38637;49.984;20.426;2023-04-19T11:29:02;99259.34;;;13.88;71.03
52745;BME280;38637;49.984;20.426;2023-04-19T11:31:31;99261.09;;;14.08;69.21
52745;BME280;38637;49.984;20.426;2023-04-19T11:33:58;99252.19;;;14.51;69.44
52745;BME280;38637;49.984;20.426;2023-04-19T11:36:24;99260.56;;;14.69;68.31
52745;BME280;38637;49.984;20.426;2023-04-19T11:38:51;99255.69;;;14.61;66.62
52745;BME280;38637;49.984;20.426;2023-04-19T11:41:16;99251.59;;;14.83;66.56
52745;BME280;38637;49.984;20.426;2023-04-19T11:43:42;99254.63;;;15.05;65.69
52745;BME280;38637;49.984;20.426;2023-04-19T11:46:10;99254.25;;;15.12;64.78
52745;BME280;38637;49.984;20.426;2023-04-19T11:48:36;99252.38;;;15.31;64.67
52745;BME280;38637;49.984;20.426;2023-04-19T11:51:02;99247.25;;;15.01;64.78
52745;BME280;38637;49.984;20.426;2023-04-19T11:53:29;99243.97;;;14.75;65.35
52745;BME280;38637;49.984;20.426;2023-04-19T11:56:04;99249.88;;;14.34;66.72
52745;BME280;38637;49.984;20.426;2023-04-19T11:58:43;99251.28;;;14.02;68.60
52745;BME280;38637;49.984;20.426;2023-04-19T12:06:27;99244.00;;;13.82;67.94
52745;BME280;38637;49.984;20.426;2023-04-19T12:08:54;99235.66;;;13.58;69.75
52745;BME280;38637;49.984;20.426;2023-04-19T12:11:22;99247.47;;;13.59;68.87
52745;BME280;38637;49.984;20.426;2023-04-19T12:14:09;99235.69;;;13.92;67.92
52745;BME280;38637;49.984;20.426;2023-04-19T12:16:35;99235.16;;;14.24;66.96
52745;BME280;38637;49.984;20.426;2023-04-19T12:19:10;99242.66;;;14.43;66.76
52745;BME280;38637;49.984;20.426;2023-04-19T12:21:37;99248.28;;;14.28;64.54
52745;BME280;38637;49.984;20.426;2023-04-19T12:24:03;99232.00;;;14.36;64.54
52745;BME280;38637;49.984;20.426;2023-04-19T12:26:29;99240.25;;;14.65;63.52
52745;BME280;38637;49.984;20.426;2023-04-19T12:28:55;99239.84;;;14.77;63.57
52745;BME280;38637;49.984;20.426;2023-04-19T12:31:21;99237.44;;;14.70;64.94
52745;BME280;38637;49.984;20.426;2023-04-19T12:33:47;99244.78;;;14.75;63.95
52745;BME280;38637;49.984;20.426;2023-04-19T12:36:13;99247.69;;;14.36;64.43
52745;BME280;38637;49.984;20.426;2023-04-19T12:38:38;99243.63;;;13.99;65.12
52745;BME280;38637;49.984;20.426;2023-04-19T12:41:04;99248.19;;;13.74;66.39
52745;BME280;38637;49.984;20.426;2023-04-19T12:43:30;99242.50;;;13.61;67.69
52745;BME280;38637;49.984;20.426;2023-04-19T12:45:56;99249.22;;;13.44;68.77
52745;BME280;38637;49.984;20.426;2023-04-19T12:48:22;99247.31;;;13.40;69.79
52745;BME280;38637;49.984;20.426;2023-04-19T12:50:48;99247.56;;;13.43;70.71
52745;BME280;38637;49.984;20.426;2023-04-19T12:53:13;99246.00;;;13.27;70.55
52745;BME280;38637;49.984;20.426;2023-04-19T12:55:38;99246.59;;;13.14;70.90
52745;BME280;38637;49.984;20.426;2023-04-19T12:58:04;99254.34;;;12.91;71.22